IL25 weather

Bromenn Hospital Heliport
Normal, Illinois, United States

Public forecast

Using degrees Fahrenheit for public forecast. Weather courtesy of forecast.io.

METAR (pilot weather report)

Closest report is Central Illinois Regional Airport at Bloomington-Normal, 3.6 nm (6.7 km) ESE. Retrieved 2019/06/25 13:56 UTC (57 minutes ago):

KBMI 251356Z 23011KT 10SM CLR 22/17 A2997 RMK AO2 SLP142 T02220172

TAF (pilot weather forecast)

Closest forecast is Central Illinois Regional Airport at Bloomington-Normal, 3.6 nm (6.7 km) ESE. Retrieved 2019/06/25 12:22 UTC (3 hours ago):

TAF KBMI 251120Z 2512/2612 23007KT P6SM SKC FM251500 22012KT P6SM SKC FM251700 22014G21KT P6SM FEW100 SCT250 FM260000 22009KT P6SM BKN100 PROB30 2600/2603 4SM -TSRA BKN050CB